East Wenona, Illinois
Current Conditions -  °F | °C
As of 9:55 PM on Friday 28 Nov 2014 (Local Time) from KC75 Reporting Station
Clear Clear  
Wind Chill: 28°   Ceiling: Unl
Heat Index: 36°   Visibility: 10mi
Dew Point: 30°   Wind: 10mph
Humidity: 80%   Direction: 170°S
Pressure: 29.86"   Gusts: NA
Location:  41.0632°N, 89.0208°W
Report Text: KC75 290355Z AUTO 17009KT 10SM CLR 02/M01 A2986 RMK AO2 T00211010
Loading
Personal Weather Stations






























Interactive Weather Map New forecast layout! Learn more

10-Day Weather Forecast

Advertisements
Track Severe Weather on mobile